N379DF KVNY-KSEZ

Flight info

Callsign N379DF
Flight time N/A
Altitude 27000
Route HEC EED DRK
Aircraft PC12/L-SDFGRWY/S

Departure

Time 2026-04-25 18:54
Airport Van Nuys Airport (KVNY)

Arrival

Time N/A
Airport Sedona Airport (KSEZ)
Time Latitude Longitude Altitude Speed Heading
2026-04-25 18:53 34.21884 -118.49155 805 ft 3 kts 114°
2026-04-25 18:53 34.21777 -118.49114 802 ft 31 kts 174°
2026-04-25 18:53 34.21367 -118.49079 792 ft 89 kts 173°
2026-04-25 18:54 34.19771 -118.48951 1502 ft 122 kts 174°
2026-04-25 18:54 34.18933 -118.48780 2239 ft 127 kts 154°
2026-04-25 18:54 34.18417 -118.47968 3249 ft 125 kts 109°
2026-04-25 18:55 34.18363 -118.46876 4081 ft 143 kts 86°
2026-04-25 18:55 34.18704 -118.45701 4998 ft 145 kts 66°
2026-04-25 18:55 34.19188 -118.44626 5760 ft 154 kts 65°
2026-04-25 18:55 34.19532 -118.43324 6379 ft 167 kts 75°
2026-04-25 18:56 34.19865 -118.41970 7194 ft 167 kts 71°
2026-04-25 18:56 34.20258 -118.40656 7876 ft 173 kts 68°
2026-04-25 18:56 34.20720 -118.39228 8344 ft 196 kts 69°
2026-04-25 18:56 34.21262 -118.37514 8418 ft 233 kts 69°
2026-04-25 18:57 34.21868 -118.35589 8416 ft 256 kts 70°
2026-04-25 18:57 34.22518 -118.33519 8414 ft 267 kts 70°
2026-04-25 18:57 34.23180 -118.31405 8408 ft 269 kts 70°
2026-04-25 18:57 34.23621 -118.29999 8410 ft 270 kts 69°
2026-04-25 18:58 34.24526 -118.27165 8394 ft 269 kts 69°
2026-04-25 18:58 34.25803 -118.23088 9309 ft 259 kts 69°
2026-04-25 18:58 34.26451 -118.21030 9593 ft 263 kts 69°
2026-04-25 18:59 34.27760 -118.16853 10160 ft 269 kts 70°
2026-04-25 18:59 34.29086 -118.12601 10712 ft 273 kts 70°
2026-04-25 19:00 34.30440 -118.08293 11136 ft 278 kts 70°
2026-04-25 19:00 34.31123 -118.06100 11397 ft 278 kts 70°
2026-04-25 19:01 34.32496 -118.01700 11890 ft 281 kts 70°
2026-04-25 19:01 34.33189 -117.99478 12107 ft 283 kts 70°
2026-04-25 19:01 34.33888 -117.97233 12354 ft 285 kts 70°
2026-04-25 19:01 34.34591 -117.94978 12528 ft 287 kts 71°
2026-04-25 19:02 34.36003 -117.90433 12841 ft 290 kts 71°
2026-04-25 19:02 34.36714 -117.88139 13055 ft 291 kts 71°
2026-04-25 19:02 34.37422 -117.85861 13220 ft 293 kts 71°
2026-04-25 19:03 34.38384 -117.82764 13356 ft 294 kts 71°
2026-04-25 19:03 34.39582 -117.78894 13585 ft 296 kts 71°
2026-04-25 19:03 34.40304 -117.76545 13728 ft 298 kts 71°
2026-04-25 19:04 34.41763 -117.71840 13994 ft 298 kts 72°
2026-04-25 19:04 34.42490 -117.69490 14106 ft 298 kts 72°
2026-04-25 19:05 34.43948 -117.64741 14265 ft 301 kts 72°
2026-04-25 19:05 34.45412 -117.59991 14503 ft 301 kts 71°
2026-04-25 19:05 34.46135 -117.57638 14592 ft 303 kts 72°
2026-04-25 19:06 34.46871 -117.55242 14704 ft 303 kts 72°
2026-04-25 19:06 34.48339 -117.50457 14907 ft 304 kts 71°
2026-04-25 19:06 34.49074 -117.48056 15013 ft 304 kts 71°
2026-04-25 19:07 34.50554 -117.43219 15158 ft 307 kts 71°
2026-04-25 19:07 34.51296 -117.40794 15255 ft 307 kts 71°
2026-04-25 19:08 34.52779 -117.35933 15414 ft 308 kts 71°
2026-04-25 19:08 34.53523 -117.33496 15494 ft 308 kts 71°
2026-04-25 19:09 34.55752 -117.26173 15676 ft 309 kts 71°
2026-04-25 19:09 34.56246 -117.24551 15719 ft 309 kts 71°
2026-04-25 19:09 34.57985 -117.18811 15859 ft 310 kts 71°
2026-04-25 19:10 34.58730 -117.16355 15876 ft 310 kts 71°
2026-04-25 19:10 34.59472 -117.13907 15982 ft 309 kts 71°
2026-04-25 19:10 34.60212 -117.11459 16031 ft 309 kts 71°
2026-04-25 19:10 34.60944 -117.09040 16060 ft 310 kts 71°
2026-04-25 19:11 34.61687 -117.06582 16121 ft 310 kts 71°
2026-04-25 19:11 34.62429 -117.04119 16094 ft 310 kts 71°
2026-04-25 19:11 34.63170 -117.01653 16072 ft 310 kts 71°
2026-04-25 19:11 34.63914 -116.99199 16081 ft 309 kts 71°
2026-04-25 19:12 34.64654 -116.96744 16088 ft 309 kts 71°
2026-04-25 19:12 34.65388 -116.94300 16107 ft 308 kts 71°
2026-04-25 19:12 34.66118 -116.91868 16116 ft 307 kts 71°
2026-04-25 19:12 34.66851 -116.89426 16116 ft 306 kts 71°
2026-04-25 19:13 34.67572 -116.87019 16106 ft 307 kts 71°
2026-04-25 19:13 34.68302 -116.84586 16110 ft 306 kts 71°
2026-04-25 19:13 34.69033 -116.82152 16143 ft 307 kts 71°
2026-04-25 19:13 34.69763 -116.79712 16124 ft 308 kts 71°
2026-04-25 19:14 34.70495 -116.77271 16110 ft 307 kts 71°
2026-04-25 19:14 34.70741 -116.76444 16114 ft 307 kts 71°
2026-04-25 19:14 34.71950 -116.72385 16143 ft 307 kts 71°
2026-04-25 19:14 34.72679 -116.69941 16140 ft 308 kts 71°
2026-04-25 19:15 34.73410 -116.67493 16131 ft 308 kts 71°
2026-04-25 19:15 34.74139 -116.65049 16145 ft 308 kts 71°
2026-04-25 19:15 34.74868 -116.62591 16190 ft 309 kts 71°
2026-04-25 19:15 34.75599 -116.60132 16183 ft 310 kts 71°
2026-04-25 19:16 34.76331 -116.57674 16211 ft 309 kts 71°
2026-04-25 19:16 34.77061 -116.55214 16265 ft 309 kts 71°
2026-04-25 19:16 34.77789 -116.52756 16317 ft 309 kts 70°
2026-04-25 19:16 34.78519 -116.50291 16365 ft 310 kts 71°
2026-04-25 19:17 34.79246 -116.47826 16417 ft 309 kts 72°
2026-04-25 19:17 34.79671 -116.45273 16442 ft 308 kts 89°
2026-04-25 19:17 34.79679 -116.42716 16486 ft 306 kts 94°
2026-04-25 19:17 34.79651 -116.40089 16548 ft 306 kts 94°
2026-04-25 19:18 34.79631 -116.37495 16604 ft 307 kts 94°
2026-04-25 19:18 34.79612 -116.34894 16660 ft 307 kts 94°
2026-04-25 19:18 34.79591 -116.32330 16717 ft 307 kts 94°
2026-04-25 19:18 34.79567 -116.29735 16761 ft 308 kts 94°
2026-04-25 19:19 34.79544 -116.27131 16756 ft 308 kts 94°
2026-04-25 19:19 34.79520 -116.24516 16750 ft 309 kts 94°
2026-04-25 19:19 34.79495 -116.21897 16747 ft 310 kts 94°
2026-04-25 19:19 34.79487 -116.21013 16749 ft 310 kts 94°
2026-04-25 19:20 34.79445 -116.16658 16810 ft 310 kts 94°
2026-04-25 19:20 34.79419 -116.14032 16850 ft 310 kts 94°
2026-04-25 19:20 34.79392 -116.11408 16891 ft 310 kts 94°
2026-04-25 19:20 34.79365 -116.08775 16938 ft 310 kts 94°
2026-04-25 19:21 34.79337 -116.06149 16973 ft 311 kts 94°
2026-04-25 19:21 34.79278 -116.00898 17033 ft 310 kts 94°
2026-04-25 19:21 34.79250 -115.98277 17056 ft 310 kts 94°
2026-04-25 19:22 34.79221 -115.95658 17230 ft 304 kts 94°
2026-04-25 19:22 34.79192 -115.93118 17530 ft 299 kts 94°
2026-04-25 19:22 34.79128 -115.88028 17946 ft 301 kts 94°
2026-04-25 19:23 34.79098 -115.85487 18197 ft 301 kts 94°
2026-04-25 19:23 34.79034 -115.80426 18674 ft 299 kts 95°
2026-04-25 19:23 34.79001 -115.77929 18924 ft 299 kts 95°
2026-04-25 19:24 34.78968 -115.75402 19207 ft 299 kts 95°
2026-04-25 19:24 34.78935 -115.72872 19507 ft 299 kts 95°
2026-04-25 19:24 34.78866 -115.67823 20155 ft 298 kts 95°
2026-04-25 19:25 34.78795 -115.62774 20792 ft 299 kts 95°
2026-04-25 19:25 34.78758 -115.60250 21144 ft 298 kts 95°
2026-04-25 19:25 34.78722 -115.57733 21493 ft 298 kts 95°
2026-04-25 19:26 34.78685 -115.55218 21850 ft 297 kts 95°
2026-04-25 19:26 34.78647 -115.52709 22211 ft 296 kts 96°
2026-04-25 19:26 34.78609 -115.50204 22591 ft 296 kts 96°
2026-04-25 19:26 34.78571 -115.47736 22964 ft 296 kts 96°
2026-04-25 19:27 34.78545 -115.46052 23214 ft 296 kts 96°
2026-04-25 19:27 34.78518 -115.44389 23446 ft 296 kts 96°
2026-04-25 19:27 34.78452 -115.40235 23970 ft 296 kts 96°
2026-04-25 19:27 34.78411 -115.37729 24278 ft 296 kts 96°
2026-04-25 19:28 34.78370 -115.35235 24610 ft 295 kts 96°
2026-04-25 19:28 34.78329 -115.32740 24960 ft 295 kts 96°
2026-04-25 19:28 34.78301 -115.31080 25176 ft 296 kts 96°
2026-04-25 19:28 34.78258 -115.28578 25530 ft 296 kts 96°
2026-04-25 19:29 34.78216 -115.26077 25897 ft 296 kts 96°
2026-04-25 19:29 34.78172 -115.23575 26343 ft 296 kts 96°
2026-04-25 19:29 34.78128 -115.21060 26729 ft 302 kts 96°
2026-04-25 19:29 34.78077 -115.18457 26794 ft 314 kts 96°
2026-04-25 19:30 34.78030 -115.15806 26797 ft 309 kts 96°
2026-04-25 19:30 34.77989 -115.13236 26774 ft 298 kts 96°
2026-04-25 19:30 34.77944 -115.10747 26779 ft 293 kts 96°
2026-04-25 19:30 34.77894 -115.08269 26777 ft 294 kts 96°
2026-04-25 19:31 34.77845 -115.05774 26771 ft 295 kts 96°
2026-04-25 19:31 34.77799 -115.03275 26786 ft 296 kts 96°
2026-04-25 19:31 34.77752 -115.00767 26792 ft 297 kts 96°
2026-04-25 19:31 34.77702 -114.98247 26794 ft 298 kts 96°
2026-04-25 19:32 34.77652 -114.95729 26804 ft 298 kts 96°
2026-04-25 19:32 34.77602 -114.93203 26810 ft 298 kts 96°
2026-04-25 19:32 34.77551 -114.90681 26813 ft 299 kts 96°
2026-04-25 19:32 34.77517 -114.89006 26816 ft 299 kts 96°
2026-04-25 19:33 34.77449 -114.85663 26822 ft 299 kts 96°
2026-04-25 19:33 34.77397 -114.83138 26827 ft 299 kts 96°
2026-04-25 19:33 34.77344 -114.80608 26834 ft 299 kts 96°
2026-04-25 19:33 34.77290 -114.78079 26843 ft 299 kts 96°
2026-04-25 19:34 34.77237 -114.75558 26845 ft 298 kts 96°
2026-04-25 19:34 34.77183 -114.73046 26850 ft 297 kts 96°
2026-04-25 19:34 34.77128 -114.70535 26845 ft 297 kts 96°
2026-04-25 19:34 34.77073 -114.68034 26844 ft 296 kts 96°
2026-04-25 19:35 34.77018 -114.65537 26843 ft 295 kts 96°
2026-04-25 19:35 34.76962 -114.63044 26844 ft 295 kts 96°
2026-04-25 19:35 34.76906 -114.60550 26843 ft 295 kts 96°
2026-04-25 19:35 34.76849 -114.58055 26841 ft 295 kts 96°
2026-04-25 19:36 34.76792 -114.55563 26841 ft 295 kts 96°
2026-04-25 19:36 34.76734 -114.53069 26840 ft 295 kts 96°
2026-04-25 19:36 34.76677 -114.50610 26838 ft 294 kts 96°
2026-04-25 19:36 34.76618 -114.48120 26831 ft 295 kts 96°
2026-04-25 19:37 34.76559 -114.45625 26826 ft 295 kts 96°
2026-04-25 19:37 34.76499 -114.43133 26819 ft 295 kts 96°
2026-04-25 19:37 34.76439 -114.40633 26814 ft 295 kts 96°
2026-04-25 19:37 34.76378 -114.38135 26796 ft 296 kts 97°
2026-04-25 19:38 34.76317 -114.35638 26804 ft 295 kts 97°
2026-04-25 19:38 34.76256 -114.33139 26804 ft 296 kts 97°
2026-04-25 19:38 34.76193 -114.30635 26803 ft 296 kts 97°
2026-04-25 19:38 34.76130 -114.28130 26803 ft 298 kts 97°
2026-04-25 19:39 34.76063 -114.25583 26820 ft 306 kts 97°
2026-04-25 19:39 34.75996 -114.22965 26819 ft 312 kts 97°
2026-04-25 19:39 34.75929 -114.20310 26811 ft 313 kts 96°
2026-04-25 19:39 34.75863 -114.17676 26809 ft 310 kts 97°
2026-04-25 19:40 34.75795 -114.15064 26802 ft 308 kts 97°
2026-04-25 19:40 34.75724 -114.12463 26799 ft 307 kts 97°
2026-04-25 19:40 34.75655 -114.09872 26793 ft 306 kts 97°
2026-04-25 19:40 34.75587 -114.07320 26778 ft 306 kts 97°
2026-04-25 19:41 34.75515 -114.04703 26785 ft 313 kts 98°
2026-04-25 19:41 34.75439 -114.02023 26789 ft 320 kts 97°
2026-04-25 19:41 34.75367 -113.99318 26797 ft 319 kts 97°
2026-04-25 19:41 34.75320 -113.97533 26796 ft 318 kts 97°
2026-04-25 19:42 34.75221 -113.93951 26796 ft 316 kts 97°
2026-04-25 19:42 34.75144 -113.91285 26794 ft 315 kts 97°
2026-04-25 19:42 34.75069 -113.88622 26795 ft 315 kts 97°
2026-04-25 19:42 34.74993 -113.85958 26801 ft 315 kts 97°
2026-04-25 19:43 34.74916 -113.83293 26794 ft 315 kts 97°
2026-04-25 19:43 34.74839 -113.80629 26794 ft 315 kts 98°
2026-04-25 19:43 34.74761 -113.77968 26791 ft 314 kts 98°
2026-04-25 19:43 34.74683 -113.75314 26790 ft 314 kts 97°
2026-04-25 19:44 34.74604 -113.72656 26797 ft 314 kts 98°
2026-04-25 19:44 34.74523 -113.70001 26795 ft 315 kts 98°
2026-04-25 19:44 34.74445 -113.67372 26804 ft 316 kts 98°
2026-04-25 19:44 34.74364 -113.64672 26806 ft 316 kts 98°
2026-04-25 19:45 34.74283 -113.62027 26807 ft 317 kts 98°
2026-04-25 19:45 34.74200 -113.59351 26810 ft 317 kts 98°
2026-04-25 19:45 34.74117 -113.56666 26810 ft 317 kts 98°
2026-04-25 19:45 34.74034 -113.53984 26810 ft 317 kts 98°
2026-04-25 19:46 34.73949 -113.51307 26812 ft 318 kts 98°
2026-04-25 19:46 34.73864 -113.48614 26816 ft 318 kts 98°
2026-04-25 19:46 34.73779 -113.45934 26819 ft 318 kts 98°
2026-04-25 19:46 34.73693 -113.43236 26815 ft 318 kts 98°
2026-04-25 19:47 34.73605 -113.40536 26805 ft 321 kts 98°
2026-04-25 19:47 34.73516 -113.37815 26804 ft 323 kts 98°
2026-04-25 19:47 34.73426 -113.35081 26814 ft 324 kts 98°
2026-04-25 19:47 34.73336 -113.32338 26815 ft 324 kts 98°
2026-04-25 19:48 34.73247 -113.29609 26814 ft 322 kts 98°
2026-04-25 19:48 34.73156 -113.26894 26810 ft 321 kts 98°
2026-04-25 19:48 34.73065 -113.24193 26811 ft 321 kts 99°
2026-04-25 19:48 34.72972 -113.21479 26826 ft 322 kts 99°
2026-04-25 19:49 34.72879 -113.18756 26827 ft 323 kts 98°
2026-04-25 19:49 34.72849 -113.17868 26826 ft 323 kts 98°
2026-04-25 19:49 34.72692 -113.13297 26828 ft 323 kts 99°
2026-04-25 19:49 34.72596 -113.10569 26827 ft 323 kts 99°
2026-04-25 19:50 34.72406 -113.05116 26822 ft 323 kts 99°
2026-04-25 19:50 34.72308 -113.02387 26822 ft 323 kts 99°
2026-04-25 19:50 34.72211 -112.99653 26823 ft 324 kts 99°
2026-04-25 19:51 34.72114 -112.96921 26828 ft 323 kts 99°
2026-04-25 19:51 34.72017 -112.94228 26838 ft 322 kts 99°
2026-04-25 19:51 34.71918 -112.91513 26826 ft 321 kts 99°
2026-04-25 19:51 34.71819 -112.88804 26823 ft 321 kts 99°
2026-04-25 19:52 34.71720 -112.86099 26829 ft 320 kts 99°
2026-04-25 19:52 34.71619 -112.83394 26835 ft 320 kts 99°
2026-04-25 19:52 34.71519 -112.80694 26833 ft 319 kts 100°
2026-04-25 19:52 34.71418 -112.78000 26825 ft 319 kts 98°
2026-04-25 19:53 34.71317 -112.75317 26835 ft 317 kts 99°
2026-04-25 19:53 34.71216 -112.72647 26834 ft 316 kts 99°
2026-04-25 19:53 34.71114 -112.69983 26830 ft 315 kts 99°
2026-04-25 19:53 34.71013 -112.67324 26829 ft 315 kts 99°
2026-04-25 19:54 34.70910 -112.64667 26826 ft 314 kts 99°
2026-04-25 19:54 34.70802 -112.61967 26381 ft 324 kts 99°
2026-04-25 19:54 34.70700 -112.59279 25891 ft 314 kts 99°
2026-04-25 19:54 34.70633 -112.57520 25568 ft 315 kts 98°
2026-04-25 19:55 34.70490 -112.53955 24936 ft 316 kts 98°
2026-04-25 19:55 34.70384 -112.51286 24470 ft 317 kts 98°
2026-04-25 19:55 34.70324 -112.48604 24172 ft 320 kts 91°
2026-04-25 19:55 34.70708 -112.45920 23717 ft 324 kts 76°
2026-04-25 19:56 34.71298 -112.43284 23223 ft 322 kts 76°
2026-04-25 19:56 34.71877 -112.40658 22698 ft 321 kts 76°
2026-04-25 19:56 34.72448 -112.38028 22183 ft 321 kts 76°
2026-04-25 19:56 34.73016 -112.35414 21676 ft 320 kts 76°
2026-04-25 19:57 34.73587 -112.32808 21167 ft 319 kts 76°
2026-04-25 19:57 34.74149 -112.30231 20672 ft 318 kts 76°
2026-04-25 19:57 34.74716 -112.27623 20177 ft 318 kts 76°
2026-04-25 19:57 34.75280 -112.25030 19689 ft 317 kts 76°
2026-04-25 19:58 34.75842 -112.22443 19210 ft 316 kts 76°
2026-04-25 19:58 34.76404 -112.19855 18734 ft 316 kts 77°
2026-04-25 19:58 34.76964 -112.17269 18267 ft 316 kts 77°
2026-04-25 19:58 34.77518 -112.14696 17738 ft 314 kts 77°
2026-04-25 19:59 34.78077 -112.12120 17215 ft 315 kts 77°
2026-04-25 19:59 34.78637 -112.09537 16716 ft 315 kts 76°
2026-04-25 19:59 34.79193 -112.06959 16233 ft 314 kts 76°
2026-04-25 19:59 34.79745 -112.04392 15753 ft 312 kts 76°
2026-04-25 20:00 34.80288 -112.01868 15285 ft 312 kts 76°
2026-04-25 20:00 34.80491 -112.01009 15120 ft 311 kts 71°
2026-04-25 20:00 34.82732 -111.98076 14294 ft 273 kts 16°
2026-04-25 20:00 34.84508 -111.97827 13809 ft 247 kts 341°
2026-04-25 20:01 34.86723 -112.00372 12752 ft 218 kts 292°
2026-04-25 20:01 34.87364 -112.02036 12240 ft 216 kts 282°
2026-04-25 20:01 34.87549 -112.03840 11695 ft 214 kts 269°
2026-04-25 20:02 34.87577 -112.05036 11349 ft 212 kts 268°